createdAt,value
2022-07-28T00:00:00.281Z,17.5
2022-07-28T00:01:06.469Z,17.5
2022-07-28T00:02:01.315Z,17.5
2022-07-28T00:03:01.217Z,17.5
2022-07-28T00:04:00.973Z,17.5
2022-07-28T00:05:00.748Z,17.5
2022-07-28T00:06:09.700Z,17.5
2022-07-28T00:07:00.891Z,17.5
2022-07-28T00:08:00.882Z,17.5
2022-07-28T00:09:00.519Z,17.5
2022-07-28T00:10:01.289Z,17.5
2022-07-28T00:11:10.542Z,17.5
2022-07-28T00:12:00.555Z,17.5
2022-07-28T00:13:00.216Z,17.5
2022-07-28T00:13:59.962Z,17.5
2022-07-28T00:14:59.705Z,17.4
2022-07-28T00:16:13.683Z,17.3
2022-07-28T00:17:01.173Z,17.3
2022-07-28T00:18:00.868Z,17.3
2022-07-28T00:19:01.098Z,17.3
2022-07-28T00:20:00.508Z,17.2
2022-07-28T00:21:00.175Z,17.2
2022-07-28T00:21:59.865Z,17.2
2022-07-28T00:22:59.583Z,17.1
2022-07-28T00:24:01.401Z,17.1
2022-07-28T00:25:01.190Z,17.1
2022-07-28T00:26:00.921Z,17.1
2022-07-28T00:27:00.603Z,17.1
2022-07-28T00:28:00.254Z,17.1
2022-07-28T00:29:00.022Z,17.1
2022-07-28T00:29:59.702Z,17.1
2022-07-28T00:31:06.150Z,17.1
2022-07-28T00:32:02.371Z,17.1
2022-07-28T00:33:00.583Z,17.1
2022-07-28T00:34:00.241Z,17.1
2022-07-28T00:34:59.852Z,17.1
2022-07-28T00:35:59.756Z,17.1
2022-07-28T00:37:02.435Z,17.1
2022-07-28T00:38:01.138Z,17.1
2022-07-28T00:39:00.993Z,17.1
2022-07-28T00:40:01.141Z,17.1
2022-07-28T00:41:01.189Z,17.1
2022-07-28T00:42:00.853Z,17.2
2022-07-28T00:43:01.534Z,17.1
2022-07-28T00:44:00.682Z,17.2
2022-07-28T00:45:01.315Z,17.2
2022-07-28T00:46:00.987Z,17.2
2022-07-28T00:47:00.668Z,17.2
2022-07-28T00:48:00.340Z,17.2
2022-07-28T00:49:00.185Z,17.1
2022-07-28T00:49:59.882Z,17.1
2022-07-28T00:50:59.547Z,17.1
2022-07-28T00:52:02.224Z,17
2022-07-28T00:53:01.637Z,17
2022-07-28T00:54:03.032Z,17
2022-07-28T00:55:01.319Z,17
2022-07-28T00:56:04.084Z,17
2022-07-28T00:57:01.326Z,17
2022-07-28T00:58:00.618Z,17.1
2022-07-28T00:59:00.833Z,17.1
2022-07-28T01:00:00.529Z,17.1
2022-07-28T01:01:00.132Z,17.1
2022-07-28T01:01:59.987Z,17.1
2022-07-28T01:02:59.927Z,17.1
2022-07-28T01:04:01.045Z,17.1
2022-07-28T01:05:00.755Z,17.1
2022-07-28T01:06:00.402Z,17.1
2022-07-28T01:07:00.037Z,17.1
2022-07-28T01:07:59.863Z,17.1
2022-07-28T01:08:59.578Z,17
2022-07-28T01:10:01.243Z,17
2022-07-28T01:11:01.118Z,17
2022-07-28T01:12:01.713Z,17
2022-07-28T01:13:00.973Z,17
2022-07-28T01:14:00.941Z,17
2022-07-28T01:15:00.959Z,17
2022-07-28T01:16:00.931Z,17
2022-07-28T01:17:01.216Z,17
2022-07-28T01:18:00.966Z,17
2022-07-28T01:19:01.101Z,17.1
2022-07-28T01:20:00.711Z,17
2022-07-28T01:21:00.566Z,17
2022-07-28T01:22:00.881Z,17
2022-07-28T01:23:00.630Z,17.1
2022-07-28T01:24:00.376Z,17
2022-07-28T01:25:00.091Z,17
2022-07-28T01:25:59.785Z,17
2022-07-28T01:27:02.235Z,17
2022-07-28T01:28:02.012Z,17
2022-07-28T01:29:01.009Z,17
2022-07-28T01:30:01.862Z,17
2022-07-28T01:31:00.768Z,17
2022-07-28T01:32:00.516Z,17
2022-07-28T01:33:00.172Z,16.9
2022-07-28T01:34:00.315Z,16.9
2022-07-28T01:35:00.163Z,16.9
2022-07-28T01:35:59.952Z,16.8
2022-07-28T01:36:59.636Z,16.8
2022-07-28T01:38:01.377Z,16.7
2022-07-28T01:39:01.084Z,16.6
2022-07-28T01:40:00.877Z,16.5
2022-07-28T01:41:00.717Z,16.5
2022-07-28T01:42:00.589Z,16.4
2022-07-28T01:43:00.220Z,16.3
2022-07-28T01:43:59.860Z,16.3
2022-07-28T01:45:02.646Z,16.2
2022-07-28T01:46:00.999Z,16.2
2022-07-28T01:47:00.729Z,16.2
2022-07-28T01:48:00.426Z,16.2
2022-07-28T01:49:00.212Z,16.2
2022-07-28T01:49:59.922Z,16.2
2022-07-28T01:50:59.730Z,16.1
2022-07-28T01:52:01.466Z,16.1
2022-07-28T01:53:01.527Z,16.1
2022-07-28T01:54:02.410Z,16.1
2022-07-28T01:55:01.290Z,16.1
2022-07-28T01:56:00.993Z,16.1
2022-07-28T01:57:00.687Z,16.1
2022-07-28T01:58:00.498Z,16.1
2022-07-28T01:59:00.194Z,16.1
2022-07-28T01:59:59.840Z,16.1
2022-07-28T02:01:01.653Z,16.1
2022-07-28T02:02:00.961Z,16.1
2022-07-28T02:03:00.724Z,16.2
2022-07-28T02:04:00.366Z,16.2
2022-07-28T02:05:00.213Z,16.3
2022-07-28T02:06:00.057Z,16.3
2022-07-28T02:07:04.418Z,16.3
2022-07-28T02:08:00.875Z,16.3
2022-07-28T02:09:00.569Z,16.3
2022-07-28T02:10:00.342Z,16.3
2022-07-28T02:11:00.109Z,16.3
2022-07-28T02:12:05.267Z,16.3
2022-07-28T02:13:01.131Z,16.3
2022-07-28T02:14:00.898Z,16.3
2022-07-28T02:15:00.606Z,16.4
2022-07-28T02:16:00.334Z,16.3
2022-07-28T02:17:06.704Z,16.3
2022-07-28T02:18:01.216Z,16.3
2022-07-28T02:19:00.935Z,16.2
2022-07-28T02:20:00.642Z,16.1
2022-07-28T02:21:00.346Z,16.1
2022-07-28T02:22:09.887Z,16
2022-07-28T02:23:01.065Z,16
2022-07-28T02:24:00.559Z,16
2022-07-28T02:25:00.285Z,15.9
2022-07-28T02:26:00.664Z,15.8
2022-07-28T02:27:12.340Z,15.8
2022-07-28T02:28:01.403Z,15.7
2022-07-28T02:29:01.013Z,15.6
2022-07-28T02:30:00.777Z,15.6
2022-07-28T02:31:00.617Z,15.6
2022-07-28T02:32:00.314Z,15.6
2022-07-28T02:33:02.325Z,15.6
2022-07-28T02:34:02.196Z,15.6
2022-07-28T02:35:02.177Z,15.6
2022-07-28T02:36:01.160Z,15.6
2022-07-28T02:37:00.850Z,15.6
2022-07-28T02:38:01.103Z,15.5
2022-07-28T02:39:01.305Z,15.6
2022-07-28T02:40:01.025Z,15.6
2022-07-28T02:41:00.899Z,15.6
2022-07-28T02:42:00.578Z,15.6
2022-07-28T02:43:00.426Z,15.6
2022-07-28T02:44:00.201Z,15.6
2022-07-28T02:44:59.883Z,15.6
2022-07-28T02:45:59.641Z,15.7
2022-07-28T02:47:02.694Z,15.7
2022-07-28T02:48:03.073Z,15.7
2022-07-28T02:49:02.653Z,15.7
2022-07-28T02:50:01.618Z,15.7
2022-07-28T02:51:01.503Z,15.7
2022-07-28T02:52:01.042Z,15.7
2022-07-28T02:53:00.966Z,15.7
2022-07-28T02:54:00.964Z,15.7
2022-07-28T02:55:00.631Z,15.7
2022-07-28T02:56:00.266Z,15.7
2022-07-28T02:56:59.909Z,15.6
2022-07-28T02:57:59.872Z,15.6
2022-07-28T02:58:59.880Z,15.6
2022-07-28T02:59:59.565Z,15.6
2022-07-28T03:01:02.847Z,15.6
2022-07-28T03:02:03.468Z,15.6
2022-07-28T03:03:00.711Z,15.6
2022-07-28T03:04:00.338Z,15.6
2022-07-28T03:05:00.072Z,15.6
2022-07-28T03:05:59.920Z,15.6
2022-07-28T03:06:59.566Z,15.6
2022-07-28T03:08:01.410Z,15.5
2022-07-28T03:09:01.169Z,15.5
2022-07-28T03:10:02.323Z,15.5
2022-07-28T03:11:00.990Z,15.5
2022-07-28T03:12:00.597Z,15.5
2022-07-28T03:13:00.495Z,15.5
2022-07-28T03:14:00.164Z,15.5
2022-07-28T03:15:02.245Z,15.5
2022-07-28T03:16:01.453Z,15.5
2022-07-28T03:17:01.156Z,15.4
2022-07-28T03:18:01.152Z,15.4
2022-07-28T03:19:00.915Z,15.5
2022-07-28T03:20:00.560Z,15.5
2022-07-28T03:21:00.236Z,15.5
2022-07-28T03:22:00.131Z,15.5
2022-07-28T03:22:59.818Z,15.5
2022-07-28T03:24:02.223Z,15.6
2022-07-28T03:25:02.443Z,15.6
2022-07-28T03:26:00.860Z,15.5
2022-07-28T03:27:00.575Z,15.5
2022-07-28T03:28:00.231Z,15.5
2022-07-28T03:28:59.967Z,15.5
2022-07-28T03:30:03.574Z,15.5
2022-07-28T03:31:00.923Z,15.5
2022-07-28T03:32:00.622Z,15.6
2022-07-28T03:33:00.425Z,15.5
2022-07-28T03:34:00.048Z,15.6
2022-07-28T03:35:00.724Z,15.6
2022-07-28T03:36:00.437Z,15.5
2022-07-28T03:37:00.111Z,15.5
2022-07-28T03:37:59.810Z,15.5
2022-07-28T03:39:01.565Z,15.5
2022-07-28T03:40:02.495Z,15.5
2022-07-28T03:41:02.155Z,15.5
2022-07-28T03:42:00.623Z,15.5
2022-07-28T03:43:00.278Z,15.5
2022-07-28T03:43:59.917Z,15.5
2022-07-28T03:44:59.572Z,15.5
2022-07-28T03:46:02.730Z,15.5
2022-07-28T03:47:00.912Z,15.5
2022-07-28T03:48:00.603Z,15.5
2022-07-28T03:49:00.385Z,15.6
2022-07-28T03:50:00.102Z,15.6
2022-07-28T03:51:00.626Z,15.6
2022-07-28T03:52:00.344Z,15.6
2022-07-28T03:53:00.021Z,15.6
2022-07-28T03:53:59.718Z,15.6
2022-07-28T03:55:02.310Z,15.6
2022-07-28T03:56:01.905Z,15.6
2022-07-28T03:57:01.743Z,15.7
2022-07-28T03:58:00.644Z,15.7
2022-07-28T03:59:00.370Z,15.7
2022-07-28T04:00:00.137Z,15.8
2022-07-28T04:01:00.242Z,15.8
2022-07-28T04:02:00.228Z,15.8
2022-07-28T04:02:59.992Z,15.9
2022-07-28T04:03:59.711Z,16
2022-07-28T04:05:02.843Z,16
2022-07-28T04:06:00.772Z,16.1
2022-07-28T04:07:00.817Z,16.1
2022-07-28T04:08:01.557Z,16.1
2022-07-28T04:09:02.215Z,16.2
2022-07-28T04:10:01.592Z,16.3
2022-07-28T04:11:01.836Z,16.3
2022-07-28T04:12:00.664Z,16.4
2022-07-28T04:13:01.590Z,16.4
2022-07-28T04:14:00.562Z,16.5
2022-07-28T04:15:00.282Z,16.5
2022-07-28T04:16:00.059Z,16.5
2022-07-28T04:16:59.889Z,16.6
2022-07-28T04:18:06.547Z,16.6
2022-07-28T04:19:00.677Z,16.7
2022-07-28T04:20:00.406Z,16.7
2022-07-28T04:21:00.102Z,16.8
2022-07-28T04:21:59.801Z,16.8
2022-07-28T04:23:10.866Z,16.9
2022-07-28T04:24:02.966Z,16.9
2022-07-28T04:25:01.569Z,17
2022-07-28T04:26:01.629Z,17
2022-07-28T04:27:00.971Z,17
2022-07-28T04:28:14.949Z,17.1
2022-07-28T04:29:03.345Z,17.1
2022-07-28T04:30:00.887Z,17.1
2022-07-28T04:31:00.795Z,17.3
2022-07-28T04:32:00.580Z,17.3
2022-07-28T04:33:00.291Z,17.3
2022-07-28T04:34:00.024Z,17.3
2022-07-28T04:34:59.798Z,17.4
2022-07-28T04:36:02.572Z,17.5
2022-07-28T04:37:00.748Z,17.5
2022-07-28T04:38:00.448Z,17.5
2022-07-28T04:39:00.097Z,17.6
2022-07-28T04:40:00.211Z,17.6
2022-07-28T04:41:00.027Z,17.7
2022-07-28T04:42:00.785Z,17.7
2022-07-28T04:43:00.558Z,17.7
2022-07-28T04:44:00.249Z,17.8
2022-07-28T04:45:00.055Z,17.8
2022-07-28T04:46:00.654Z,17.8
2022-07-28T04:47:00.395Z,17.9
2022-07-28T04:48:00.033Z,18
2022-07-28T04:48:59.907Z,18
2022-07-28T04:49:59.638Z,18.1
2022-07-28T04:51:01.431Z,18.1
2022-07-28T04:52:01.160Z,18.1
2022-07-28T04:53:00.835Z,18.2
2022-07-28T04:54:00.691Z,18.2
2022-07-28T04:55:00.462Z,18.3
2022-07-28T04:56:00.228Z,18.3
2022-07-28T04:57:00.623Z,18.3
2022-07-28T04:58:01.155Z,18.4
2022-07-28T04:59:00.852Z,18.4
2022-07-28T05:00:00.866Z,18.5
2022-07-28T05:01:00.821Z,18.5
2022-07-28T05:02:00.558Z,18.6
2022-07-28T05:03:00.315Z,18.6
2022-07-28T05:04:00.702Z,18.6
2022-07-28T05:05:00.466Z,18.5
2022-07-28T05:06:00.303Z,18.5
2022-07-28T05:06:59.882Z,18.4
2022-07-28T05:07:59.585Z,18.4
2022-07-28T05:09:01.257Z,18.3
2022-07-28T05:10:01.032Z,18.3
2022-07-28T05:11:00.689Z,18.3
2022-07-28T05:12:00.460Z,18.3
2022-07-28T05:13:00.153Z,18.3
2022-07-28T05:13:59.812Z,18.2
2022-07-28T05:15:02.846Z,18.2
2022-07-28T05:16:01.512Z,18.2
2022-07-28T05:17:00.996Z,18.2
2022-07-28T05:18:00.940Z,18.3
2022-07-28T05:19:00.715Z,18.3
2022-07-28T05:20:00.505Z,18.3
2022-07-28T05:21:01.426Z,18.5
2022-07-28T05:22:00.626Z,18.5
2022-07-28T05:23:00.249Z,18.6
2022-07-28T05:23:59.902Z,18.8
2022-07-28T05:24:59.594Z,19
2022-07-28T05:26:02.396Z,19.1
2022-07-28T05:27:01.037Z,19.2
2022-07-28T05:28:00.683Z,19.3
2022-07-28T05:29:00.685Z,19.4
2022-07-28T05:30:00.870Z,19.5
2022-07-28T05:31:00.896Z,19.8
2022-07-28T05:32:03.955Z,20
2022-07-28T05:33:02.421Z,20.1
2022-07-28T05:34:00.686Z,20.2
2022-07-28T05:35:00.427Z,20.3
2022-07-28T05:36:00.183Z,20.5
2022-07-28T05:36:59.915Z,20.6
2022-07-28T05:38:00.044Z,20.8
2022-07-28T05:38:59.796Z,21
2022-07-28T05:40:02.871Z,21.1
2022-07-28T05:41:00.929Z,21.3
2022-07-28T05:42:00.616Z,21.5
2022-07-28T05:43:00.301Z,21.6
2022-07-28T05:43:59.942Z,21.8
2022-07-28T05:44:59.588Z,22
2022-07-28T05:46:01.486Z,22.1
2022-07-28T05:47:00.882Z,22.2
2022-07-28T05:48:00.818Z,22.2
2022-07-28T05:49:00.538Z,22.2
2022-07-28T05:50:00.817Z,22.2
2022-07-28T05:51:00.494Z,22.3
2022-07-28T05:52:00.119Z,22.2
2022-07-28T05:52:59.840Z,22.1
2022-07-28T05:54:01.843Z,22.1
2022-07-28T05:55:03.150Z,22.2
2022-07-28T05:56:02.121Z,22.3
2022-07-28T05:57:00.940Z,22.5
2022-07-28T05:58:00.563Z,22.6
2022-07-28T05:59:04.613Z,22.7
2022-07-28T06:00:02.557Z,22.8
2022-07-28T06:01:02.494Z,22.9
2022-07-28T06:02:01.668Z,23
2022-07-28T06:03:01.008Z,23.1
2022-07-28T06:04:27.852Z,23.3
2022-07-28T06:05:00.774Z,23.4
2022-07-28T06:06:14.568Z,23.5
2022-07-28T06:07:01.619Z,23.6
2022-07-28T06:08:01.235Z,23.5
2022-07-28T06:09:06.650Z,23.3
2022-07-28T06:10:02.160Z,23
2022-07-28T06:11:02.566Z,22.8
2022-07-28T06:12:01.458Z,22.7
2022-07-28T06:13:01.364Z,22.6
2022-07-28T06:14:10.414Z,22.6
2022-07-28T06:15:01.187Z,22.6
2022-07-28T06:16:01.294Z,22.6
2022-07-28T06:17:00.705Z,22.6
2022-07-28T06:18:00.881Z,22.6
2022-07-28T06:19:11.345Z,22.8
2022-07-28T06:20:00.542Z,22.6
2022-07-28T06:21:00.326Z,22.5
2022-07-28T06:22:00.195Z,22.3
2022-07-28T06:22:59.885Z,22.2
2022-07-28T06:24:13.560Z,22
2022-07-28T06:25:00.622Z,21.9
2022-07-28T06:26:00.269Z,21.8
2022-07-28T06:26:59.897Z,21.6
2022-07-28T06:27:59.613Z,21.5
2022-07-28T06:29:17.337Z,21.5
2022-07-28T06:30:03.001Z,21.4
2022-07-28T06:31:01.383Z,21.3
2022-07-28T06:32:01.222Z,21.2
2022-07-28T06:33:00.977Z,21.1
2022-07-28T06:34:00.660Z,21.1
2022-07-28T06:35:00.397Z,21.1
2022-07-28T06:36:00.100Z,21.1
2022-07-28T06:36:59.774Z,21.1
2022-07-28T06:38:01.652Z,21.1
2022-07-28T06:39:01.527Z,21.1
2022-07-28T06:40:01.081Z,21
2022-07-28T06:41:00.823Z,21.1
2022-07-28T06:42:00.720Z,21.1
2022-07-28T06:43:00.460Z,21
2022-07-28T06:44:00.312Z,20.8
2022-07-28T06:45:01.198Z,20.7
2022-07-28T06:46:00.970Z,20.6
2022-07-28T06:47:01.013Z,20.6
2022-07-28T06:48:00.755Z,20.5
2022-07-28T06:49:00.569Z,20.5
2022-07-28T06:50:01.222Z,20.5
2022-07-28T06:51:01.006Z,20.4
2022-07-28T06:52:00.678Z,20.3
2022-07-28T06:53:00.338Z,20.2
2022-07-28T06:54:00.099Z,20.1
2022-07-28T06:54:59.795Z,20.1
2022-07-28T06:56:01.693Z,20.1
2022-07-28T06:57:01.067Z,20.1
2022-07-28T06:58:00.724Z,20.1
2022-07-28T06:59:00.790Z,20.1
2022-07-28T07:00:00.586Z,20.1
2022-07-28T07:01:00.926Z,20.1
2022-07-28T07:02:00.958Z,20
2022-07-28T07:03:01.320Z,20
2022-07-28T07:04:00.733Z,20
2022-07-28T07:05:00.585Z,20
2022-07-28T07:06:00.269Z,20
2022-07-28T07:06:59.971Z,20
2022-07-28T07:07:59.992Z,20
2022-07-28T07:08:59.950Z,20
2022-07-28T07:09:59.837Z,20
2022-07-28T07:11:02.987Z,20
2022-07-28T07:12:00.645Z,19.9
2022-07-28T07:13:00.621Z,19.8
2022-07-28T07:14:02.587Z,19.8
2022-07-28T07:15:01.318Z,19.8
2022-07-28T07:16:01.082Z,19.8
2022-07-28T07:17:00.937Z,19.8
2022-07-28T07:18:00.696Z,19.8
2022-07-28T07:19:00.538Z,19.9
2022-07-28T07:20:02.298Z,20
2022-07-28T07:21:00.869Z,20
2022-07-28T07:22:00.580Z,20
2022-07-28T07:23:00.238Z,20.1
2022-07-28T07:24:00.091Z,20.1
2022-07-28T07:24:59.837Z,20.1
2022-07-28T07:26:02.466Z,20.2
2022-07-28T07:27:02.489Z,20.3
2022-07-28T07:28:01.187Z,20.3
2022-07-28T07:29:01.006Z,20.3
2022-07-28T07:30:00.693Z,20.3
2022-07-28T07:31:00.479Z,20.3
2022-07-28T07:32:00.326Z,20.4
2022-07-28T07:33:00.032Z,20.5
2022-07-28T07:33:59.701Z,20.5
2022-07-28T07:35:01.648Z,20.5
2022-07-28T07:36:01.399Z,20.4
2022-07-28T07:37:00.786Z,20.5
2022-07-28T07:38:00.464Z,20.4
2022-07-28T07:39:00.132Z,20.4
2022-07-28T07:39:59.867Z,20.4
2022-07-28T07:40:59.573Z,20.4
2022-07-28T07:42:02.181Z,20.5
2022-07-28T07:43:01.496Z,20.5
2022-07-28T07:44:00.957Z,20.5
2022-07-28T07:45:00.734Z,20.6
2022-07-28T07:46:00.433Z,20.6
2022-07-28T07:47:00.330Z,20.7
2022-07-28T07:48:00.137Z,20.8
2022-07-28T07:48:59.936Z,20.7
2022-07-28T07:50:04.994Z,20.6
2022-07-28T07:51:00.889Z,20.7
2022-07-28T07:52:00.703Z,20.8
2022-07-28T07:53:00.345Z,20.8
2022-07-28T07:54:00.064Z,20.8
2022-07-28T07:55:07.925Z,20.8
2022-07-28T07:56:00.775Z,20.8
2022-07-28T07:57:00.507Z,20.8
2022-07-28T07:58:00.196Z,21
2022-07-28T07:59:00.146Z,21
2022-07-28T08:00:28.081Z,21
2022-07-28T08:01:01.022Z,21
2022-07-28T08:02:00.923Z,21.1
2022-07-28T08:03:00.729Z,21
2022-07-28T08:04:00.696Z,21
2022-07-28T08:05:16.390Z,21
2022-07-28T08:06:01.113Z,21
2022-07-28T08:07:00.876Z,21
2022-07-28T08:08:00.593Z,21.1
2022-07-28T08:09:00.285Z,21.1
2022-07-28T08:09:59.955Z,21.1
2022-07-28T08:10:59.665Z,21.1
2022-07-28T08:12:02.192Z,21.1
2022-07-28T08:13:00.634Z,21
2022-07-28T08:14:00.400Z,21
2022-07-28T08:15:00.124Z,21
2022-07-28T08:16:00.662Z,21
2022-07-28T08:17:00.410Z,21.1
2022-07-28T08:18:00.409Z,21.1
2022-07-28T08:19:00.049Z,21.1
2022-07-28T08:19:59.827Z,21
2022-07-28T08:21:01.863Z,21.1
2022-07-28T08:22:00.872Z,21.1
2022-07-28T08:23:00.648Z,21
2022-07-28T08:24:00.527Z,21.1
2022-07-28T08:25:00.209Z,21.1
2022-07-28T08:25:59.931Z,21.1
2022-07-28T08:26:59.673Z,21.2
2022-07-28T08:28:02.256Z,21.2
2022-07-28T08:29:02.257Z,21.2
2022-07-28T08:30:00.607Z,21.3
2022-07-28T08:31:00.531Z,21.3
2022-07-28T08:32:00.198Z,21.3
2022-07-28T08:32:59.911Z,21.4
2022-07-28T08:33:59.608Z,21.5
2022-07-28T08:35:30.454Z,21.5
2022-07-28T08:36:01.628Z,21.5
2022-07-28T08:37:00.883Z,21.5
2022-07-28T08:38:00.775Z,21.5
2022-07-28T08:39:00.509Z,21.4
2022-07-28T08:40:00.176Z,21.3
2022-07-28T08:40:59.841Z,21.3
2022-07-28T08:42:01.606Z,21.4
2022-07-28T08:43:01.566Z,21.5
2022-07-28T08:44:02.630Z,21.5
2022-07-28T08:45:02.269Z,21.5
2022-07-28T08:46:02.906Z,21.5
2022-07-28T08:47:01.206Z,21.6
2022-07-28T08:48:09.794Z,21.6
2022-07-28T08:49:01.079Z,21.6
2022-07-28T08:50:00.817Z,21.6
2022-07-28T08:51:00.538Z,21.6
2022-07-28T08:52:00.277Z,21.6
2022-07-28T08:52:59.893Z,21.5
2022-07-28T08:53:59.638Z,21.6
2022-07-28T08:55:01.292Z,21.5
2022-07-28T08:56:00.985Z,21.5
2022-07-28T08:57:00.766Z,21.6
2022-07-28T08:58:00.698Z,21.6
2022-07-28T08:59:00.603Z,21.6
2022-07-28T09:00:00.875Z,21.6
2022-07-28T09:01:01.678Z,21.6
2022-07-28T09:02:00.934Z,21.6
2022-07-28T09:03:00.891Z,21.6
2022-07-28T09:04:00.621Z,21.7
2022-07-28T09:05:00.697Z,21.7
2022-07-28T09:06:00.376Z,21.8
2022-07-28T09:07:00.046Z,21.8
2022-07-28T09:07:59.692Z,21.8
2022-07-28T09:09:02.138Z,21.8
2022-07-28T09:10:00.670Z,21.8
2022-07-28T09:11:00.880Z,21.9
2022-07-28T09:12:00.667Z,21.9
2022-07-28T09:13:00.400Z,21.9
2022-07-28T09:14:00.113Z,21.9
2022-07-28T09:14:59.986Z,21.8
2022-07-28T09:15:59.796Z,21.8
2022-07-28T09:17:02.107Z,21.8
2022-07-28T09:18:01.043Z,21.8
2022-07-28T09:19:00.768Z,21.8
2022-07-28T09:20:00.555Z,21.8
2022-07-28T09:21:00.348Z,21.8
2022-07-28T09:22:00.283Z,21.8
2022-07-28T09:23:00.050Z,21.8
2022-07-28T09:23:59.766Z,21.8
2022-07-28T09:25:01.450Z,21.8
2022-07-28T09:26:01.498Z,21.8
2022-07-28T09:27:02.269Z,21.8
2022-07-28T09:28:01.313Z,21.8
2022-07-28T09:29:01.106Z,21.8
2022-07-28T09:30:00.805Z,21.8
2022-07-28T09:31:03.786Z,21.8
2022-07-28T09:32:03.016Z,21.8
2022-07-28T09:33:02.631Z,21.8
2022-07-28T09:34:01.512Z,21.8
2022-07-28T09:35:01.187Z,21.9
2022-07-28T09:36:04.008Z,21.9
2022-07-28T09:37:01.076Z,22
2022-07-28T09:38:00.765Z,22
2022-07-28T09:39:00.458Z,22
2022-07-28T09:40:03.805Z,22
2022-07-28T09:41:04.329Z,22
2022-07-28T09:42:02.346Z,22.1
2022-07-28T09:43:01.010Z,22.1
2022-07-28T09:44:00.873Z,22.1
2022-07-28T09:45:21.928Z,22.2
2022-07-28T09:46:06.742Z,22.2
2022-07-28T09:47:02.614Z,22.2
2022-07-28T09:48:03.073Z,22.2
2022-07-28T09:49:02.847Z,22.2
2022-07-28T09:50:00.815Z,22.2
2022-07-28T09:51:08.485Z,22.2
2022-07-28T09:52:00.829Z,22.2
2022-07-28T09:53:01.566Z,22.3
2022-07-28T09:54:00.748Z,22.3
2022-07-28T09:55:00.396Z,22.3
2022-07-28T09:56:11.921Z,22.2
2022-07-28T09:57:00.898Z,22.1
2022-07-28T09:58:00.647Z,22.1
2022-07-28T09:59:00.585Z,22.1
2022-07-28T10:00:02.299Z,22
2022-07-28T10:01:13.841Z,22
2022-07-28T10:02:02.450Z,22
2022-07-28T10:03:00.712Z,21.9
2022-07-28T10:04:02.687Z,21.9
2022-07-28T10:05:02.762Z,21.9
2022-07-28T10:06:00.726Z,21.8
2022-07-28T10:07:00.435Z,21.9
2022-07-28T10:08:00.604Z,21.9
2022-07-28T10:09:00.261Z,22
2022-07-28T10:09:59.943Z,22
2022-07-28T10:10:59.740Z,22
2022-07-28T10:12:02.250Z,22
2022-07-28T10:13:01.382Z,22
2022-07-28T10:14:00.787Z,22
2022-07-28T10:15:00.746Z,22
2022-07-28T10:16:00.443Z,22.1
2022-07-28T10:17:05.652Z,22.1
2022-07-28T10:18:01.433Z,22.1
2022-07-28T10:19:00.795Z,22.2
2022-07-28T10:20:00.520Z,22.2
2022-07-28T10:21:00.248Z,22.2
2022-07-28T10:21:59.863Z,22.1
2022-07-28T10:22:59.622Z,22.2
2022-07-28T10:24:01.392Z,22.3
2022-07-28T10:25:01.289Z,22.3
2022-07-28T10:26:01.298Z,22.3
2022-07-28T10:27:00.971Z,22.3
2022-07-28T10:28:00.618Z,22.3
2022-07-28T10:29:00.273Z,22.3
2022-07-28T10:29:59.977Z,22.3
2022-07-28T10:30:59.807Z,22.3
2022-07-28T10:32:02.145Z,22.3
2022-07-28T10:33:00.724Z,22.3
2022-07-28T10:34:00.363Z,22.3
2022-07-28T10:35:00.116Z,22.4
2022-07-28T10:35:59.786Z,22.4
2022-07-28T10:37:03.365Z,22.4
2022-07-28T10:38:00.746Z,22.4
2022-07-28T10:39:00.715Z,22.4
2022-07-28T10:40:00.753Z,22.4
2022-07-28T10:41:00.398Z,22.4
2022-07-28T10:42:00.095Z,22.3
2022-07-28T10:42:59.973Z,22.4
2022-07-28T10:43:59.981Z,22.4
2022-07-28T10:44:59.775Z,22.3
2022-07-28T10:46:05.986Z,22.3
2022-07-28T10:47:00.859Z,22.3
2022-07-28T10:48:00.629Z,22.3
2022-07-28T10:49:00.429Z,22.3
2022-07-28T10:50:01.534Z,22.3
2022-07-28T10:51:01.185Z,22.3
2022-07-28T10:52:06.534Z,22.3
2022-07-28T10:53:00.958Z,22.4
2022-07-28T10:54:00.740Z,22.5
2022-07-28T10:55:00.740Z,22.5
2022-07-28T10:56:01.664Z,22.5
2022-07-28T10:57:00.617Z,22.5
2022-07-28T10:58:02.133Z,22.5
2022-07-28T10:59:04.652Z,22.5
2022-07-28T11:00:12.909Z,22.6
2022-07-28T11:01:05.920Z,22.6
2022-07-28T11:02:02.007Z,22.6
2022-07-28T11:03:00.992Z,22.6
2022-07-28T11:04:00.944Z,22.6
2022-07-28T11:05:01.636Z,22.5
2022-07-28T11:06:01.038Z,22.5
2022-07-28T11:07:00.723Z,22.6
2022-07-28T11:08:00.436Z,22.5
2022-07-28T11:09:00.136Z,22.6
2022-07-28T11:09:59.869Z,22.6
2022-07-28T11:11:09.215Z,22.6
2022-07-28T11:12:01.762Z,22.6
2022-07-28T11:13:01.402Z,22.7
2022-07-28T11:14:00.667Z,22.7
2022-07-28T11:15:00.461Z,22.7
2022-07-28T11:16:01.393Z,22.7
2022-07-28T11:17:10.247Z,22.7
2022-07-28T11:18:01.421Z,22.7
2022-07-28T11:19:00.843Z,22.7
2022-07-28T11:20:25.137Z,22.8
2022-07-28T11:21:02.270Z,22.8
2022-07-28T11:22:07.742Z,22.8
2022-07-28T11:23:00.934Z,22.8
2022-07-28T11:24:00.863Z,22.7
2022-07-28T11:25:00.808Z,22.6
2022-07-28T11:26:00.871Z,22.6
2022-07-28T11:27:09.805Z,22.6
2022-07-28T11:28:00.682Z,22.6
2022-07-28T11:29:00.471Z,22.6
2022-07-28T11:30:00.184Z,22.7
2022-07-28T11:31:00.048Z,22.7
2022-07-28T11:32:12.346Z,22.6
2022-07-28T11:33:00.690Z,22.7
2022-07-28T11:34:00.631Z,22.7
2022-07-28T11:35:00.525Z,22.8
2022-07-28T11:36:00.219Z,22.8
2022-07-28T11:37:15.381Z,22.8
2022-07-28T11:38:01.529Z,22.9
2022-07-28T11:39:02.857Z,22.9
2022-07-28T11:40:02.405Z,22.8
2022-07-28T11:41:02.236Z,22.9
2022-07-28T11:42:15.032Z,22.9
2022-07-28T11:43:00.973Z,22.9
2022-07-28T11:44:00.787Z,22.9
2022-07-28T11:45:00.567Z,22.8
2022-07-28T11:46:00.937Z,22.8
2022-07-28T11:47:16.131Z,22.9
2022-07-28T11:48:00.589Z,22.9
2022-07-28T11:49:00.405Z,22.8
2022-07-28T11:50:00.209Z,22.8
2022-07-28T11:50:59.993Z,22.8
2022-07-28T11:51:59.693Z,22.8
2022-07-28T11:53:00.909Z,22.9
2022-07-28T11:54:00.564Z,23
2022-07-28T11:55:00.602Z,23
2022-07-28T11:56:02.785Z,23
2022-07-28T11:57:01.180Z,23
2022-07-28T11:58:00.738Z,23
2022-07-28T11:59:00.491Z,23
2022-07-28T12:00:00.276Z,23
2022-07-28T12:01:00.112Z,23
2022-07-28T12:02:00.808Z,23
2022-07-28T12:03:00.596Z,23
2022-07-28T12:04:00.712Z,23.1
2022-07-28T12:05:00.770Z,23.1
2022-07-28T12:06:00.812Z,23.1
2022-07-28T12:07:00.742Z,23.1
2022-07-28T12:08:00.917Z,23.1
2022-07-28T12:09:01.006Z,23.2
2022-07-28T12:10:00.727Z,23.2
2022-07-28T12:11:00.402Z,23.2
2022-07-28T12:12:00.134Z,23.3
2022-07-28T12:12:59.881Z,23.3
2022-07-28T12:13:59.657Z,23.3
2022-07-28T12:15:06.680Z,23.3
2022-07-28T12:16:01.449Z,23.2
2022-07-28T12:17:01.125Z,23.1
2022-07-28T12:18:00.910Z,23.1
2022-07-28T12:19:01.726Z,23.1
2022-07-28T12:20:00.602Z,23.2
2022-07-28T12:21:04.920Z,23.2
2022-07-28T12:22:03.231Z,23.3
2022-07-28T12:23:01.763Z,23.3
2022-07-28T12:24:00.946Z,23.5
2022-07-28T12:25:02.857Z,23.5
2022-07-28T12:26:00.749Z,23.5
2022-07-28T12:27:00.694Z,23.6
2022-07-28T12:28:02.135Z,23.6
2022-07-28T12:29:01.243Z,23.6
2022-07-28T12:30:00.968Z,23.6
2022-07-28T12:31:00.758Z,23.6
2022-07-28T12:32:00.609Z,23.6
2022-07-28T12:33:00.385Z,23.5
2022-07-28T12:34:00.106Z,23.6
2022-07-28T12:34:59.748Z,23.6
2022-07-28T12:36:02.141Z,23.7
2022-07-28T12:37:01.222Z,23.7
2022-07-28T12:38:01.053Z,23.7
2022-07-28T12:39:00.874Z,23.8
2022-07-28T12:40:00.633Z,23.8
2022-07-28T12:41:00.331Z,23.8
2022-07-28T12:42:00.022Z,23.7
2022-07-28T12:42:59.698Z,23.6
2022-07-28T12:44:01.415Z,23.6
2022-07-28T12:45:02.116Z,23.6
2022-07-28T12:46:00.737Z,23.6
2022-07-28T12:47:00.466Z,23.6
2022-07-28T12:48:00.989Z,23.5
2022-07-28T12:49:00.754Z,23.5
2022-07-28T12:50:04.989Z,23.6
2022-07-28T12:51:02.701Z,23.6
2022-07-28T12:52:02.259Z,23.6
2022-07-28T12:53:02.267Z,23.6
2022-07-28T12:54:00.619Z,23.8
2022-07-28T12:55:00.316Z,23.8
2022-07-28T12:56:00.011Z,23.9
2022-07-28T12:56:59.716Z,24
2022-07-28T12:58:01.355Z,24
2022-07-28T12:59:01.022Z,24.1
2022-07-28T13:00:00.931Z,24.1
2022-07-28T13:01:00.961Z,24.1
2022-07-28T13:02:00.711Z,24.1
2022-07-28T13:03:00.448Z,24.1
2022-07-28T13:04:00.280Z,24.1
2022-07-28T13:04:59.966Z,24.1
2022-07-28T13:05:59.674Z,24.1
2022-07-28T13:07:01.436Z,24
2022-07-28T13:08:02.248Z,24
2022-07-28T13:09:02.672Z,24
2022-07-28T13:10:01.536Z,24
2022-07-28T13:11:01.239Z,24
2022-07-28T13:12:00.924Z,23.9
2022-07-28T13:13:00.638Z,23.8
2022-07-28T13:14:00.293Z,23.8
2022-07-28T13:15:00.067Z,23.9
2022-07-28T13:15:59.883Z,23.9
2022-07-28T13:16:59.730Z,23.8
2022-07-28T13:18:02.204Z,23.8
2022-07-28T13:19:02.724Z,23.8
2022-07-28T13:20:00.859Z,23.8
2022-07-28T13:21:00.546Z,23.8
2022-07-28T13:22:03.005Z,23.8
2022-07-28T13:23:02.100Z,23.8
2022-07-28T13:24:00.654Z,23.8
2022-07-28T13:25:00.724Z,23.8